sensor_id;sensor_type;location;lat;lon;timestamp;P1;durP1;ratioP1;P2;durP2;ratioP2
51292;SDS011;37377;45.186;9.778;2023-02-28T00:00:32;11.45;;;5.85;;
51292;SDS011;37377;45.186;9.778;2023-02-28T00:03:00;17.55;;;5.45;;
51292;SDS011;37377;45.186;9.778;2023-02-28T00:05:27;13.55;;;5.63;;
51292;SDS011;37377;45.186;9.778;2023-02-28T00:07:54;13.02;;;6.28;;
51292;SDS011;37377;45.186;9.778;2023-02-28T00:10:22;11.77;;;6.07;;
51292;SDS011;37377;45.186;9.778;2023-02-28T00:12:50;14.18;;;6.13;;
51292;SDS011;37377;45.186;9.778;2023-02-28T00:15:17;15.85;;;5.88;;
51292;SDS011;37377;45.186;9.778;2023-02-28T00:17:45;15.32;;;6.47;;
51292;SDS011;37377;45.186;9.778;2023-02-28T00:20:13;9.55;;;5.38;;
51292;SDS011;37377;45.186;9.778;2023-02-28T00:22:42;10.52;;;5.13;;
51292;SDS011;37377;45.186;9.778;2023-02-28T00:25:12;21.00;;;5.85;;
51292;SDS011;37377;45.186;9.778;2023-02-28T00:27:40;18.38;;;6.55;;
51292;SDS011;37377;45.186;9.778;2023-02-28T00:30:09;14.30;;;6.32;;
51292;SDS011;37377;45.186;9.778;2023-02-28T00:32:37;11.55;;;5.65;;
51292;SDS011;37377;45.186;9.778;2023-02-28T00:35:04;17.35;;;5.43;;
51292;SDS011;37377;45.186;9.778;2023-02-28T00:37:31;11.85;;;6.72;;
51292;SDS011;37377;45.186;9.778;2023-02-28T00:39:58;11.02;;;4.82;;
51292;SDS011;37377;45.186;9.778;2023-02-28T00:42:26;9.38;;;6.40;;
51292;SDS011;37377;45.186;9.778;2023-02-28T00:44:53;15.40;;;6.00;;
51292;SDS011;37377;45.186;9.778;2023-02-28T00:47:20;12.32;;;5.07;;
51292;SDS011;37377;45.186;9.778;2023-02-28T00:49:47;11.05;;;5.47;;
51292;SDS011;37377;45.186;9.778;2023-02-28T00:52:15;9.52;;;6.13;;
51292;SDS011;37377;45.186;9.778;2023-02-28T00:54:46;12.30;;;5.32;;
51292;SDS011;37377;45.186;9.778;2023-02-28T00:57:15;9.77;;;5.40;;
51292;SDS011;37377;45.186;9.778;2023-02-28T00:59:42;11.63;;;5.55;;
51292;SDS011;37377;45.186;9.778;2023-02-28T01:02:10;10.05;;;5.68;;
51292;SDS011;37377;45.186;9.778;2023-02-28T01:04:41;10.50;;;5.57;;
51292;SDS011;37377;45.186;9.778;2023-02-28T01:07:09;12.80;;;6.53;;
51292;SDS011;37377;45.186;9.778;2023-02-28T01:09:36;15.43;;;6.40;;
51292;SDS011;37377;45.186;9.778;2023-02-28T01:12:03;12.45;;;6.10;;
51292;SDS011;37377;45.186;9.778;2023-02-28T01:14:32;12.88;;;6.38;;
51292;SDS011;37377;45.186;9.778;2023-02-28T01:16:59;13.43;;;6.13;;
51292;SDS011;37377;45.186;9.778;2023-02-28T01:19:26;11.73;;;6.38;;
51292;SDS011;37377;45.186;9.778;2023-02-28T01:21:53;11.73;;;6.32;;
51292;SDS011;37377;45.186;9.778;2023-02-28T01:24:21;8.73;;;6.63;;
51292;SDS011;37377;45.186;9.778;2023-02-28T01:26:47;14.65;;;6.10;;
51292;SDS011;37377;45.186;9.778;2023-02-28T01:29:14;11.23;;;7.38;;
51292;SDS011;37377;45.186;9.778;2023-02-28T01:31:44;13.75;;;6.28;;
51292;SDS011;37377;45.186;9.778;2023-02-28T01:34:11;10.70;;;6.45;;
51292;SDS011;37377;45.186;9.778;2023-02-28T01:36:38;11.63;;;5.85;;
51292;SDS011;37377;45.186;9.778;2023-02-28T01:39:05;14.25;;;5.28;;
51292;SDS011;37377;45.186;9.778;2023-02-28T01:41:34;12.20;;;5.90;;
51292;SDS011;37377;45.186;9.778;2023-02-28T01:44:03;11.20;;;5.78;;
51292;SDS011;37377;45.186;9.778;2023-02-28T01:46:33;13.35;;;4.97;;
51292;SDS011;37377;45.186;9.778;2023-02-28T01:51:38;9.93;;;5.95;;
51292;SDS011;37377;45.186;9.778;2023-02-28T01:54:13;12.95;;;5.38;;
51292;SDS011;37377;45.186;9.778;2023-02-28T01:56:49;8.30;;;5.95;;
51292;SDS011;37377;45.186;9.778;2023-02-28T01:59:30;9.88;;;5.22;;
51292;SDS011;37377;45.186;9.778;2023-02-28T02:01:59;10.40;;;5.03;;
51292;SDS011;37377;45.186;9.778;2023-02-28T02:04:30;7.65;;;5.95;;
51292;SDS011;37377;45.186;9.778;2023-02-28T02:06:58;13.35;;;5.45;;
51292;SDS011;37377;45.186;9.778;2023-02-28T02:09:25;14.65;;;5.38;;
51292;SDS011;37377;45.186;9.778;2023-02-28T02:11:54;15.63;;;5.80;;
51292;SDS011;37377;45.186;9.778;2023-02-28T02:14:31;8.13;;;5.57;;
51292;SDS011;37377;45.186;9.778;2023-02-28T02:17:48;12.20;;;6.05;;
51292;SDS011;37377;45.186;9.778;2023-02-28T02:35:15;6.95;;;5.10;;
51292;SDS011;37377;45.186;9.778;2023-02-28T02:37:53;6.82;;;5.35;;
51292;SDS011;37377;45.186;9.778;2023-02-28T02:40:25;7.50;;;4.68;;
51292;SDS011;37377;45.186;9.778;2023-02-28T02:42:55;12.15;;;5.47;;
51292;SDS011;37377;45.186;9.778;2023-02-28T02:45:34;6.97;;;4.55;;
51292;SDS011;37377;45.186;9.778;2023-02-28T02:48:03;10.88;;;6.15;;
51292;SDS011;37377;45.186;9.778;2023-02-28T02:50:33;8.23;;;5.50;;
51292;SDS011;37377;45.186;9.778;2023-02-28T02:53:01;10.13;;;5.35;;
51292;SDS011;37377;45.186;9.778;2023-02-28T02:55:35;8.73;;;5.55;;
51292;SDS011;37377;45.186;9.778;2023-02-28T02:58:04;6.53;;;5.80;;
51292;SDS011;37377;45.186;9.778;2023-02-28T03:00:34;11.45;;;5.68;;
51292;SDS011;37377;45.186;9.778;2023-02-28T03:03:02;12.68;;;5.28;;
51292;SDS011;37377;45.186;9.778;2023-02-28T03:05:32;8.00;;;5.85;;
51292;SDS011;37377;45.186;9.778;2023-02-28T03:08:03;7.22;;;5.45;;
51292;SDS011;37377;45.186;9.778;2023-02-28T03:10:40;19.00;;;5.85;;
51292;SDS011;37377;45.186;9.778;2023-02-28T03:16:54;13.25;;;6.15;;
51292;SDS011;37377;45.186;9.778;2023-02-28T03:18:53;11.85;;;5.30;;
51292;SDS011;37377;45.186;9.778;2023-02-28T03:26:45;7.60;;;5.82;;
51292;SDS011;37377;45.186;9.778;2023-02-28T03:29:23;9.20;;;5.80;;
51292;SDS011;37377;45.186;9.778;2023-02-28T03:32:05;9.43;;;5.93;;
51292;SDS011;37377;45.186;9.778;2023-02-28T03:34:42;9.80;;;5.93;;
51292;SDS011;37377;45.186;9.778;2023-02-28T03:37:14;9.82;;;5.97;;
51292;SDS011;37377;45.186;9.778;2023-02-28T03:39:44;9.82;;;6.57;;
51292;SDS011;37377;45.186;9.778;2023-02-28T03:42:27;15.75;;;6.18;;
51292;SDS011;37377;45.186;9.778;2023-02-28T03:44:59;9.90;;;5.85;;
51292;SDS011;37377;45.186;9.778;2023-02-28T03:47:35;12.98;;;6.72;;
51292;SDS011;37377;45.186;9.778;2023-02-28T03:52:38;14.30;;;5.50;;
51292;SDS011;37377;45.186;9.778;2023-02-28T03:55:09;8.20;;;5.85;;
51292;SDS011;37377;45.186;9.778;2023-02-28T03:57:39;10.70;;;6.47;;
51292;SDS011;37377;45.186;9.778;2023-02-28T04:00:13;9.50;;;6.10;;
51292;SDS011;37377;45.186;9.778;2023-02-28T04:02:41;12.18;;;6.07;;
51292;SDS011;37377;45.186;9.778;2023-02-28T04:05:09;13.02;;;6.50;;
51292;SDS011;37377;45.186;9.778;2023-02-28T04:07:37;10.75;;;5.93;;
51292;SDS011;37377;45.186;9.778;2023-02-28T04:10:04;10.73;;;6.43;;
51292;SDS011;37377;45.186;9.778;2023-02-28T04:12:33;16.75;;;6.63;;
51292;SDS011;37377;45.186;9.778;2023-02-28T04:15:00;15.27;;;6.55;;
51292;SDS011;37377;45.186;9.778;2023-02-28T04:17:27;10.55;;;6.97;;
51292;SDS011;37377;45.186;9.778;2023-02-28T04:19:54;7.88;;;6.40;;
51292;SDS011;37377;45.186;9.778;2023-02-28T04:22:23;12.45;;;6.55;;
51292;SDS011;37377;45.186;9.778;2023-02-28T04:24:52;9.32;;;6.60;;
51292;SDS011;37377;45.186;9.778;2023-02-28T04:27:21;11.23;;;6.70;;
51292;SDS011;37377;45.186;9.778;2023-02-28T04:29:48;14.35;;;6.90;;
51292;SDS011;37377;45.186;9.778;2023-02-28T04:32:16;13.82;;;6.28;;
51292;SDS011;37377;45.186;9.778;2023-02-28T04:34:43;10.13;;;7.10;;
51292;SDS011;37377;45.186;9.778;2023-02-28T04:37:09;9.68;;;6.30;;
51292;SDS011;37377;45.186;9.778;2023-02-28T04:39:40;8.50;;;6.88;;
51292;SDS011;37377;45.186;9.778;2023-02-28T04:42:07;11.23;;;6.57;;
51292;SDS011;37377;45.186;9.778;2023-02-28T04:44:34;14.10;;;6.75;;
51292;SDS011;37377;45.186;9.778;2023-02-28T04:47:01;10.57;;;6.88;;
51292;SDS011;37377;45.186;9.778;2023-02-28T04:49:28;11.90;;;7.53;;
51292;SDS011;37377;45.186;9.778;2023-02-28T04:51:55;13.82;;;7.18;;
51292;SDS011;37377;45.186;9.778;2023-02-28T04:54:22;10.50;;;6.32;;
51292;SDS011;37377;45.186;9.778;2023-02-28T04:56:51;8.55;;;6.70;;
51292;SDS011;37377;45.186;9.778;2023-02-28T04:59:18;13.00;;;7.07;;
51292;SDS011;37377;45.186;9.778;2023-02-28T05:01:46;10.02;;;6.85;;
51292;SDS011;37377;45.186;9.778;2023-02-28T05:04:15;9.70;;;7.75;;
51292;SDS011;37377;45.186;9.778;2023-02-28T05:06:42;26.15;;;7.60;;
51292;SDS011;37377;45.186;9.778;2023-02-28T05:09:09;16.35;;;7.18;;
51292;SDS011;37377;45.186;9.778;2023-02-28T05:11:38;18.85;;;7.53;;
51292;SDS011;37377;45.186;9.778;2023-02-28T05:14:07;12.95;;;7.22;;
51292;SDS011;37377;45.186;9.778;2023-02-28T05:16:35;13.45;;;7.22;;
51292;SDS011;37377;45.186;9.778;2023-02-28T05:19:02;10.57;;;7.55;;
51292;SDS011;37377;45.186;9.778;2023-02-28T05:24:15;8.95;;;6.55;;
51292;SDS011;37377;45.186;9.778;2023-02-28T05:26:42;8.13;;;6.75;;
51292;SDS011;37377;45.186;9.778;2023-02-28T05:29:09;12.80;;;6.13;;
51292;SDS011;37377;45.186;9.778;2023-02-28T05:31:36;8.30;;;5.90;;
51292;SDS011;37377;45.186;9.778;2023-02-28T05:34:04;11.75;;;6.38;;
51292;SDS011;37377;45.186;9.778;2023-02-28T05:36:31;9.73;;;5.82;;
51292;SDS011;37377;45.186;9.778;2023-02-28T05:38:58;13.40;;;7.15;;
51292;SDS011;37377;45.186;9.778;2023-02-28T05:41:25;13.88;;;7.18;;
51292;SDS011;37377;45.186;9.778;2023-02-28T05:43:53;8.05;;;6.68;;
51292;SDS011;37377;45.186;9.778;2023-02-28T05:46:20;8.35;;;6.13;;
51292;SDS011;37377;45.186;9.778;2023-02-28T05:48:47;9.75;;;7.22;;
51292;SDS011;37377;45.186;9.778;2023-02-28T05:51:14;13.93;;;6.95;;
51292;SDS011;37377;45.186;9.778;2023-02-28T05:53:41;12.18;;;6.90;;
51292;SDS011;37377;45.186;9.778;2023-02-28T05:56:08;14.45;;;7.25;;
51292;SDS011;37377;45.186;9.778;2023-02-28T05:58:35;13.50;;;6.75;;
51292;SDS011;37377;45.186;9.778;2023-02-28T06:03:49;10.25;;;7.15;;
51292;SDS011;37377;45.186;9.778;2023-02-28T06:06:17;10.95;;;7.35;;
51292;SDS011;37377;45.186;9.778;2023-02-28T06:08:44;10.40;;;7.72;;
51292;SDS011;37377;45.186;9.778;2023-02-28T06:11:12;14.38;;;7.75;;
51292;SDS011;37377;45.186;9.778;2023-02-28T06:13:39;12.60;;;7.22;;
51292;SDS011;37377;45.186;9.778;2023-02-28T06:16:06;12.23;;;7.38;;
51292;SDS011;37377;45.186;9.778;2023-02-28T06:18:33;12.70;;;8.23;;
51292;SDS011;37377;45.186;9.778;2023-02-28T06:21:01;21.55;;;8.93;;
51292;SDS011;37377;45.186;9.778;2023-02-28T06:23:29;16.80;;;9.45;;
51292;SDS011;37377;45.186;9.778;2023-02-28T06:25:56;25.95;;;9.77;;
51292;SDS011;37377;45.186;9.778;2023-02-28T06:28:26;24.13;;;9.10;;
51292;SDS011;37377;45.186;9.778;2023-02-28T06:30:53;19.88;;;9.65;;
51292;SDS011;37377;45.186;9.778;2023-02-28T06:33:20;14.30;;;8.77;;
51292;SDS011;37377;45.186;9.778;2023-02-28T06:35:47;14.48;;;9.30;;
51292;SDS011;37377;45.186;9.778;2023-02-28T06:38:16;16.13;;;10.10;;
51292;SDS011;37377;45.186;9.778;2023-02-28T06:40:44;11.93;;;8.73;;
51292;SDS011;37377;45.186;9.778;2023-02-28T06:43:11;15.30;;;10.65;;
51292;SDS011;37377;45.186;9.778;2023-02-28T06:45:42;16.75;;;9.93;;
51292;SDS011;37377;45.186;9.778;2023-02-28T06:48:10;14.00;;;9.75;;
51292;SDS011;37377;45.186;9.778;2023-02-28T06:50:37;17.58;;;10.63;;
51292;SDS011;37377;45.186;9.778;2023-02-28T06:53:04;18.60;;;11.15;;
51292;SDS011;37377;45.186;9.778;2023-02-28T06:55:32;23.25;;;12.48;;
51292;SDS011;37377;45.186;9.778;2023-02-28T06:57:59;16.42;;;11.55;;
51292;SDS011;37377;45.186;9.778;2023-02-28T07:00:27;20.80;;;11.80;;
51292;SDS011;37377;45.186;9.778;2023-02-28T07:02:55;19.55;;;11.23;;
51292;SDS011;37377;45.186;9.778;2023-02-28T07:05:22;17.80;;;10.68;;
51292;SDS011;37377;45.186;9.778;2023-02-28T07:07:49;20.50;;;11.48;;
51292;SDS011;37377;45.186;9.778;2023-02-28T07:10:16;23.67;;;10.30;;
51292;SDS011;37377;45.186;9.778;2023-02-28T07:12:45;15.25;;;10.05;;
51292;SDS011;37377;45.186;9.778;2023-02-28T07:15:12;19.02;;;10.30;;
51292;SDS011;37377;45.186;9.778;2023-02-28T07:17:39;20.35;;;11.15;;
51292;SDS011;37377;45.186;9.778;2023-02-28T07:20:06;24.05;;;11.57;;
51292;SDS011;37377;45.186;9.778;2023-02-28T07:22:33;17.88;;;11.27;;
51292;SDS011;37377;45.186;9.778;2023-02-28T07:25:00;23.80;;;11.55;;
51292;SDS011;37377;45.186;9.778;2023-02-28T07:27:27;16.77;;;11.00;;
51292;SDS011;37377;45.186;9.778;2023-02-28T07:29:54;16.80;;;10.25;;
51292;SDS011;37377;45.186;9.778;2023-02-28T07:32:21;18.38;;;11.07;;
51292;SDS011;37377;45.186;9.778;2023-02-28T07:34:49;17.92;;;12.02;;
51292;SDS011;37377;45.186;9.778;2023-02-28T07:37:16;13.65;;;11.68;;
51292;SDS011;37377;45.186;9.778;2023-02-28T07:39:42;15.63;;;11.32;;
51292;SDS011;37377;45.186;9.778;2023-02-28T07:42:09;18.33;;;11.13;;
51292;SDS011;37377;45.186;9.778;2023-02-28T07:44:38;16.83;;;11.60;;
51292;SDS011;37377;45.186;9.778;2023-02-28T07:47:07;21.13;;;12.48;;
51292;SDS011;37377;45.186;9.778;2023-02-28T07:49:35;19.48;;;13.00;;
51292;SDS011;37377;45.186;9.778;2023-02-28T07:52:05;20.23;;;12.85;;
51292;SDS011;37377;45.186;9.778;2023-02-28T07:54:33;14.27;;;10.55;;
51292;SDS011;37377;45.186;9.778;2023-02-28T07:57:01;18.15;;;11.73;;
51292;SDS011;37377;45.186;9.778;2023-02-28T07:59:28;18.20;;;11.35;;
51292;SDS011;37377;45.186;9.778;2023-02-28T08:01:57;21.02;;;11.95;;
51292;SDS011;37377;45.186;9.778;2023-02-28T08:04:26;17.83;;;10.50;;
51292;SDS011;37377;45.186;9.778;2023-02-28T08:06:56;16.60;;;10.30;;
51292;SDS011;37377;45.186;9.778;2023-02-28T08:09:26;12.98;;;10.23;;
51292;SDS011;37377;45.186;9.778;2023-02-28T08:12:00;11.75;;;10.20;;
51292;SDS011;37377;45.186;9.778;2023-02-28T08:14:33;12.65;;;9.50;;
51292;SDS011;37377;45.186;9.778;2023-02-28T08:17:08;19.77;;;10.38;;
51292;SDS011;37377;45.186;9.778;2023-02-28T08:19:45;24.17;;;11.00;;
51292;SDS011;37377;45.186;9.778;2023-02-28T08:22:16;18.17;;;11.15;;
51292;SDS011;37377;45.186;9.778;2023-02-28T08:24:49;21.40;;;9.98;;
51292;SDS011;37377;45.186;9.778;2023-02-28T08:27:25;15.52;;;11.27;;
51292;SDS011;37377;45.186;9.778;2023-02-28T08:29:54;12.98;;;9.93;;
51292;SDS011;37377;45.186;9.778;2023-02-28T08:32:29;12.98;;;10.05;;
51292;SDS011;37377;45.186;9.778;2023-02-28T08:35:00;14.15;;;9.20;;
51292;SDS011;37377;45.186;9.778;2023-02-28T08:37:34;18.23;;;10.52;;
51292;SDS011;37377;45.186;9.778;2023-02-28T08:40:06;11.27;;;8.82;;
51292;SDS011;37377;45.186;9.778;2023-02-28T08:42:42;11.77;;;9.05;;
51292;SDS011;37377;45.186;9.778;2023-02-28T08:45:13;12.45;;;8.30;;
51292;SDS011;37377;45.186;9.778;2023-02-28T08:47:50;11.93;;;7.90;;
51292;SDS011;37377;45.186;9.778;2023-02-28T08:50:25;8.07;;;7.07;;
51292;SDS011;37377;45.186;9.778;2023-02-28T08:52:52;14.35;;;8.52;;
51292;SDS011;37377;45.186;9.778;2023-02-28T08:55:25;10.02;;;7.20;;
51292;SDS011;37377;45.186;9.778;2023-02-28T08:58:07;12.23;;;8.93;;
51292;SDS011;37377;45.186;9.778;2023-02-28T09:00:50;9.70;;;8.35;;
51292;SDS011;37377;45.186;9.778;2023-02-28T09:03:23;16.63;;;8.90;;
51292;SDS011;37377;45.186;9.778;2023-02-28T09:05:59;8.32;;;7.47;;
51292;SDS011;37377;45.186;9.778;2023-02-28T09:08:35;8.63;;;7.18;;
51292;SDS011;37377;45.186;9.778;2023-02-28T09:11:11;13.77;;;7.80;;
51292;SDS011;37377;45.186;9.778;2023-02-28T09:13:45;8.65;;;7.13;;
51292;SDS011;37377;45.186;9.778;2023-02-28T09:16:21;8.43;;;7.53;;
51292;SDS011;37377;45.186;9.778;2023-02-28T09:18:56;8.32;;;7.47;;
51292;SDS011;37377;45.186;9.778;2023-02-28T09:21:31;11.77;;;6.65;;
51292;SDS011;37377;45.186;9.778;2023-02-28T09:24:02;12.93;;;7.25;;
51292;SDS011;37377;45.186;9.778;2023-02-28T09:26:38;9.60;;;8.23;;
51292;SDS011;37377;45.186;9.778;2023-02-28T09:29:31;8.55;;;7.63;;
51292;SDS011;37377;45.186;9.778;2023-02-28T09:32:01;9.23;;;7.07;;
51292;SDS011;37377;45.186;9.778;2023-02-28T09:34:32;12.05;;;7.63;;
51292;SDS011;37377;45.186;9.778;2023-02-28T09:37:07;8.38;;;6.97;;
51292;SDS011;37377;45.186;9.778;2023-02-28T09:39:48;12.25;;;6.78;;
51292;SDS011;37377;45.186;9.778;2023-02-28T09:42:35;9.10;;;7.07;;
51292;SDS011;37377;45.186;9.778;2023-02-28T09:48:03;15.20;;;8.20;;
51292;SDS011;37377;45.186;9.778;2023-02-28T09:50:46;8.60;;;7.03;;
51292;SDS011;37377;45.186;9.778;2023-02-28T09:53:29;9.07;;;7.25;;
51292;SDS011;37377;45.186;9.778;2023-02-28T09:56:09;12.27;;;7.13;;
51292;SDS011;37377;45.186;9.778;2023-02-28T09:58:45;10.88;;;6.25;;
51292;SDS011;37377;45.186;9.778;2023-02-28T10:01:31;10.98;;;6.30;;
51292;SDS011;37377;45.186;9.778;2023-02-28T10:06:58;10.38;;;6.45;;
51292;SDS011;37377;45.186;9.778;2023-02-28T10:09:31;11.18;;;6.63;;
51292;SDS011;37377;45.186;9.778;2023-02-28T10:12:06;7.82;;;6.60;;
51292;SDS011;37377;45.186;9.778;2023-02-28T10:15:07;9.32;;;6.95;;
51292;SDS011;37377;45.186;9.778;2023-02-28T10:17:47;7.65;;;6.50;;
51292;SDS011;37377;45.186;9.778;2023-02-28T10:20:35;18.95;;;10.77;;
51292;SDS011;37377;45.186;9.778;2023-02-28T10:23:17;8.93;;;7.07;;
51292;SDS011;37377;45.186;9.778;2023-02-28T10:28:52;11.63;;;7.28;;
51292;SDS011;37377;45.186;9.778;2023-02-28T10:31:25;8.00;;;6.53;;
51292;SDS011;37377;45.186;9.778;2023-02-28T10:33:55;9.07;;;6.80;;
51292;SDS011;37377;45.186;9.778;2023-02-28T10:36:31;7.85;;;6.82;;
51292;SDS011;37377;45.186;9.778;2023-02-28T10:41:56;10.35;;;6.25;;
51292;SDS011;37377;45.186;9.778;2023-02-28T10:44:27;11.27;;;7.93;;
51292;SDS011;37377;45.186;9.778;2023-02-28T10:47:02;12.77;;;7.47;;
51292;SDS011;37377;45.186;9.778;2023-02-28T10:49:29;12.27;;;7.60;;
51292;SDS011;37377;45.186;9.778;2023-02-28T10:52:07;10.00;;;6.50;;
51292;SDS011;37377;45.186;9.778;2023-02-28T10:54:44;16.75;;;7.53;;
51292;SDS011;37377;45.186;9.778;2023-02-28T11:00:07;11.60;;;7.18;;
51292;SDS011;37377;45.186;9.778;2023-02-28T11:02:42;11.43;;;6.68;;
51292;SDS011;37377;45.186;9.778;2023-02-28T11:05:23;9.82;;;7.00;;
51292;SDS011;37377;45.186;9.778;2023-02-28T11:08:10;12.70;;;7.57;;
51292;SDS011;37377;45.186;9.778;2023-02-28T11:10:55;15.68;;;8.18;;
51292;SDS011;37377;45.186;9.778;2023-02-28T11:13:32;15.27;;;7.38;;
51292;SDS011;37377;45.186;9.778;2023-02-28T11:16:06;11.35;;;7.93;;
51292;SDS011;37377;45.186;9.778;2023-02-28T11:21:16;13.85;;;7.70;;
51292;SDS011;37377;45.186;9.778;2023-02-28T11:23:51;11.50;;;7.88;;
51292;SDS011;37377;45.186;9.778;2023-02-28T11:26:39;15.18;;;7.40;;
51292;SDS011;37377;45.186;9.778;2023-02-28T11:29:24;15.88;;;7.97;;
51292;SDS011;37377;45.186;9.778;2023-02-28T11:34:35;11.68;;;8.15;;
51292;SDS011;37377;45.186;9.778;2023-02-28T11:37:12;12.07;;;7.57;;
51292;SDS011;37377;45.186;9.778;2023-02-28T11:39:47;16.13;;;8.50;;
51292;SDS011;37377;45.186;9.778;2023-02-28T11:47:48;10.52;;;7.85;;
51292;SDS011;37377;45.186;9.778;2023-02-28T11:53:01;13.05;;;8.00;;
51292;SDS011;37377;45.186;9.778;2023-02-28T11:58:26;12.73;;;9.10;;
51292;SDS011;37377;45.186;9.778;2023-02-28T12:01:14;10.23;;;8.82;;
51292;SDS011;37377;45.186;9.778;2023-02-28T12:03:44;12.32;;;8.52;;
51292;SDS011;37377;45.186;9.778;2023-02-28T12:19:22;16.80;;;9.43;;
51292;SDS011;37377;45.186;9.778;2023-02-28T12:27:03;11.18;;;8.63;;
51292;SDS011;37377;45.186;9.778;2023-02-28T12:29:32;19.83;;;9.85;;
51292;SDS011;37377;45.186;9.778;2023-02-28T12:32:05;13.95;;;9.00;;
51292;SDS011;37377;45.186;9.778;2023-02-28T12:34:44;19.27;;;9.32;;
51292;SDS011;37377;45.186;9.778;2023-02-28T12:37:14;13.00;;;9.20;;
51292;SDS011;37377;45.186;9.778;2023-02-28T12:39:47;14.95;;;9.73;;
51292;SDS011;37377;45.186;9.778;2023-02-28T12:42:24;14.15;;;8.65;;
51292;SDS011;37377;45.186;9.778;2023-02-28T12:44:52;13.77;;;9.18;;
51292;SDS011;37377;45.186;9.778;2023-02-28T12:47:20;15.32;;;9.10;;
51292;SDS011;37377;45.186;9.778;2023-02-28T12:52:25;10.98;;;8.93;;
51292;SDS011;37377;45.186;9.778;2023-02-28T12:59:55;16.55;;;10.15;;
51292;SDS011;37377;45.186;9.778;2023-02-28T13:02:33;13.85;;;9.45;;
51292;SDS011;37377;45.186;9.778;2023-02-28T13:10:39;15.93;;;8.70;;
51292;SDS011;37377;45.186;9.778;2023-02-28T13:13:10;15.23;;;10.02;;
51292;SDS011;37377;45.186;9.778;2023-02-28T13:15:40;15.60;;;10.82;;
51292;SDS011;37377;45.186;9.778;2023-02-28T13:18:26;11.63;;;8.50;;
51292;SDS011;37377;45.186;9.778;2023-02-28T13:20:54;13.07;;;8.73;;
51292;SDS011;37377;45.186;9.778;2023-02-28T13:23:38;12.52;;;9.80;;
51292;SDS011;37377;45.186;9.778;2023-02-28T13:26:06;11.70;;;8.95;;
51292;SDS011;37377;45.186;9.778;2023-02-28T13:29:07;13.52;;;10.52;;
51292;SDS011;37377;45.186;9.778;2023-02-28T13:31:26;11.73;;;8.98;;
51292;SDS011;37377;45.186;9.778;2023-02-28T13:36:27;18.88;;;10.63;;
51292;SDS011;37377;45.186;9.778;2023-02-28T13:38:59;10.45;;;9.35;;
51292;SDS011;37377;45.186;9.778;2023-02-28T13:46:28;19.75;;;9.80;;
51292;SDS011;37377;45.186;9.778;2023-02-28T13:48:55;15.32;;;11.18;;
51292;SDS011;37377;45.186;9.778;2023-02-28T13:52:06;11.52;;;9.73;;
51292;SDS011;37377;45.186;9.778;2023-02-28T13:56:43;10.73;;;9.05;;
51292;SDS011;37377;45.186;9.778;2023-02-28T13:59:29;12.60;;;10.30;;
51292;SDS011;37377;45.186;9.778;2023-02-28T14:02:25;17.30;;;10.65;;
51292;SDS011;37377;45.186;9.778;2023-02-28T14:04:58;13.68;;;10.57;;
51292;SDS011;37377;45.186;9.778;2023-02-28T14:07:31;17.83;;;9.93;;
51292;SDS011;37377;45.186;9.778;2023-02-28T14:10:03;14.88;;;10.80;;
51292;SDS011;37377;45.186;9.778;2023-02-28T14:18:00;14.07;;;10.70;;
51292;SDS011;37377;45.186;9.778;2023-02-28T14:20:29;20.25;;;10.98;;
51292;SDS011;37377;45.186;9.778;2023-02-28T14:23:02;19.23;;;10.65;;
51292;SDS011;37377;45.186;9.778;2023-02-28T14:25:38;13.02;;;8.95;;
51292;SDS011;37377;45.186;9.778;2023-02-28T14:28:58;10.60;;;8.75;;
51292;SDS011;37377;45.186;9.778;2023-02-28T14:34:10;12.50;;;9.63;;
51292;SDS011;37377;45.186;9.778;2023-02-28T14:36:45;14.05;;;9.80;;
51292;SDS011;37377;45.186;9.778;2023-02-28T14:39:34;15.45;;;10.55;;
51292;SDS011;37377;45.186;9.778;2023-02-28T14:42:24;12.52;;;10.82;;
51292;SDS011;37377;45.186;9.778;2023-02-28T14:44:58;14.55;;;10.43;;
51292;SDS011;37377;45.186;9.778;2023-02-28T14:47:32;16.67;;;9.95;;
51292;SDS011;37377;45.186;9.778;2023-02-28T14:50:07;13.02;;;10.63;;
51292;SDS011;37377;45.186;9.778;2023-02-28T14:52:38;14.20;;;10.88;;
51292;SDS011;37377;45.186;9.778;2023-02-28T14:55:17;18.13;;;10.68;;
51292;SDS011;37377;45.186;9.778;2023-02-28T15:00:31;12.18;;;9.75;;
51292;SDS011;37377;45.186;9.778;2023-02-28T15:03:22;13.98;;;10.75;;
51292;SDS011;37377;45.186;9.778;2023-02-28T15:08:35;20.65;;;10.85;;
51292;SDS011;37377;45.186;9.778;2023-02-28T15:11:17;17.38;;;11.48;;
51292;SDS011;37377;45.186;9.778;2023-02-28T15:13:52;18.65;;;13.43;;
51292;SDS011;37377;45.186;9.778;2023-02-28T15:16:24;14.05;;;11.07;;
51292;SDS011;37377;45.186;9.778;2023-02-28T15:19:02;17.00;;;11.23;;
51292;SDS011;37377;45.186;9.778;2023-02-28T15:21:41;15.40;;;10.75;;
51292;SDS011;37377;45.186;9.778;2023-02-28T15:24:28;14.45;;;10.90;;
51292;SDS011;37377;45.186;9.778;2023-02-28T15:27:07;20.42;;;11.75;;
51292;SDS011;37377;45.186;9.778;2023-02-28T15:29:50;21.95;;;12.52;;
51292;SDS011;37377;45.186;9.778;2023-02-28T15:32:30;17.45;;;11.48;;
51292;SDS011;37377;45.186;9.778;2023-02-28T15:34:59;15.23;;;11.73;;
51292;SDS011;37377;45.186;9.778;2023-02-28T15:37:57;15.95;;;12.07;;
51292;SDS011;37377;45.186;9.778;2023-02-28T15:40:36;11.57;;;9.88;;
51292;SDS011;37377;45.186;9.778;2023-02-28T15:45:56;16.92;;;12.50;;
51292;SDS011;37377;45.186;9.778;2023-02-28T15:48:30;21.98;;;12.30;;
51292;SDS011;37377;45.186;9.778;2023-02-28T15:53:59;15.32;;;11.85;;
51292;SDS011;37377;45.186;9.778;2023-02-28T15:56:32;16.73;;;12.77;;
51292;SDS011;37377;45.186;9.778;2023-02-28T15:59:12;19.85;;;13.88;;
51292;SDS011;37377;45.186;9.778;2023-02-28T16:01:45;18.48;;;12.70;;
51292;SDS011;37377;45.186;9.778;2023-02-28T16:04:16;23.55;;;12.25;;
51292;SDS011;37377;45.186;9.778;2023-02-28T16:07:06;17.38;;;12.30;;
51292;SDS011;37377;45.186;9.778;2023-02-28T16:09:36;15.10;;;12.55;;
51292;SDS011;37377;45.186;9.778;2023-02-28T16:12:11;18.75;;;11.50;;
51292;SDS011;37377;45.186;9.778;2023-02-28T16:14:43;22.50;;;12.63;;
51292;SDS011;37377;45.186;9.778;2023-02-28T16:17:23;23.05;;;13.05;;
51292;SDS011;37377;45.186;9.778;2023-02-28T16:19:53;17.55;;;12.05;;
51292;SDS011;37377;45.186;9.778;2023-02-28T16:22:23;19.55;;;12.80;;
51292;SDS011;37377;45.186;9.778;2023-02-28T16:25:29;20.13;;;12.82;;
51292;SDS011;37377;45.186;9.778;2023-02-28T16:28:05;23.52;;;13.18;;
51292;SDS011;37377;45.186;9.778;2023-02-28T16:30:41;15.32;;;11.73;;
51292;SDS011;37377;45.186;9.778;2023-02-28T16:33:08;18.67;;;12.38;;
51292;SDS011;37377;45.186;9.778;2023-02-28T16:35:35;18.05;;;11.90;;
51292;SDS011;37377;45.186;9.778;2023-02-28T16:38:01;17.00;;;11.93;;
51292;SDS011;37377;45.186;9.778;2023-02-28T16:40:28;16.38;;;11.65;;
51292;SDS011;37377;45.186;9.778;2023-02-28T16:42:59;18.10;;;11.60;;
51292;SDS011;37377;45.186;9.778;2023-02-28T16:45:28;17.23;;;11.70;;
51292;SDS011;37377;45.186;9.778;2023-02-28T16:47:55;20.00;;;12.30;;
51292;SDS011;37377;45.186;9.778;2023-02-28T16:50:26;15.98;;;12.50;;
51292;SDS011;37377;45.186;9.778;2023-02-28T16:52:54;16.35;;;11.43;;
51292;SDS011;37377;45.186;9.778;2023-02-28T16:55:24;18.73;;;11.82;;
51292;SDS011;37377;45.186;9.778;2023-02-28T16:57:52;17.63;;;11.88;;
51292;SDS011;37377;45.186;9.778;2023-02-28T17:00:19;29.67;;;15.00;;
51292;SDS011;37377;45.186;9.778;2023-02-28T17:02:47;22.77;;;14.60;;
51292;SDS011;37377;45.186;9.778;2023-02-28T17:05:14;20.98;;;12.90;;
51292;SDS011;37377;45.186;9.778;2023-02-28T17:07:41;20.10;;;12.90;;